Time;durP1;ratioP1;P1;durP2;ratioP2;P2;SDS_P1;SDS_P2;PMS_P1;PMS_P2;Temp;Humidity;BMP_temperature;BMP_pressure;BME280_temperature;BME280_humidity;BME280_pressure;Samples;Min_cycle;Max_cycle;Signal;HPM_P1;HPM_P2
2022/08/18 00:00:30;;;;;;;9.00;4.70;;;;;;;24.07;62.38;99935.19;5073601;28;20545;-64
2022/08/18 00:02:58;;;;;;;8.50;5.50;;;;;;;24.10;62.25;99931.47;5079976;28;20221;-64
2022/08/18 00:05:24;;;;;;;5.80;5.00;;;;;;;24.00;62.57;99941.88;5090271;28;20942;-64
2022/08/18 00:07:50;;;;;;;7.20;5.43;;;;;;;23.77;63.83;99938.75;5091571;28;20428;-64
2022/08/18 00:10:15;;;;;;;6.37;5.07;;;;;;;23.97;63.14;99941.88;5091894;28;20429;-64
2022/08/18 00:12:42;;;;;;;6.83;4.90;;;;;;;23.90;63.13;99939.91;5091509;28;20245;-64
2022/08/18 00:15:09;;;;;;;6.53;4.97;;;;;;;24.01;62.98;99940.63;5071118;28;20241;-64
2022/08/18 00:17:35;;;;;;;7.03;5.50;;;;;;;24.28;62.01;99943.66;5077847;28;20869;-64
2022/08/18 00:20:05;;;;;;;8.83;5.23;;;;;;;24.28;62.09;99935.78;5074086;28;20658;-64
2022/08/18 00:22:30;;;;;;;7.43;4.77;;;;;;;24.35;61.86;99938.63;5070722;28;20428;-64
2022/08/18 00:24:56;;;;;;;7.47;5.40;;;;;;;24.43;61.40;99945.94;5073211;28;21113;-64
2022/08/18 00:27:26;;;;;;;10.00;5.20;;;;;;;24.45;61.67;99940.56;5073568;28;20183;-64
2022/08/18 00:29:52;;;;;;;6.63;5.20;;;;;;;24.32;61.86;99935.75;5070757;28;20194;-64
2022/08/18 00:32:21;;;;;;;7.03;5.10;;;;;;;24.42;61.51;99926.16;5074707;28;20756;-64
2022/08/18 00:34:46;;;;;;;5.43;4.63;;;;;;;24.47;61.52;99928.56;5072123;28;20425;-64
2022/08/18 00:37:12;;;;;;;8.43;5.13;;;;;;;24.48;61.17;99931.03;5071925;28;20771;-64
2022/08/18 00:39:37;;;;;;;7.13;4.93;;;;;;;24.44;61.55;99920.78;5071761;28;20171;-64
2022/08/18 00:42:17;;;;;;;6.30;4.40;;;;;;;24.50;60.93;99916.16;5071709;28;20183;-64
2022/08/18 00:44:42;;;;;;;6.73;4.70;;;;;;;24.46;61.26;99913.34;5070839;28;20190;-64
2022/08/18 00:47:08;;;;;;;6.13;4.90;;;;;;;24.51;61.13;99912.88;5088148;28;20515;-64
2022/08/18 00:49:34;;;;;;;6.23;5.00;;;;;;;24.53;61.32;99913.22;5088708;28;20183;-64
2022/08/18 00:51:59;;;;;;;5.97;4.30;;;;;;;24.55;61.27;99922.31;5070152;28;20201;-64
2022/08/18 00:54:27;;;;;;;5.73;4.50;;;;;;;24.56;61.23;99917.31;5071506;28;20473;-64
2022/08/18 00:56:55;;;;;;;5.83;4.93;;;;;;;24.58;60.81;99927.22;5070221;28;20210;-64
2022/08/18 00:59:32;;;;;;;7.23;5.43;;;;;;;24.61;60.82;99920.59;5070384;28;20449;-64
2022/08/18 01:02:01;;;;;;;8.90;5.20;;;;;;;24.63;61.16;99911.50;5079220;28;20505;-64
2022/08/18 01:04:36;;;;;;;7.47;5.53;;;;;;;24.62;60.42;99918.50;5082625;28;20417;-64
2022/08/18 01:07:05;;;;;;;7.60;5.37;;;;;;;24.62;60.83;99922.22;5058255;28;20473;-64
2022/08/18 01:09:30;;;;;;;7.40;5.10;;;;;;;24.63;60.76;99915.19;5071396;28;20455;-64
2022/08/18 01:11:56;;;;;;;10.67;5.27;;;;;;;24.64;60.77;99913.94;5070880;28;20971;-64
2022/08/18 01:14:21;;;;;;;7.00;5.00;;;;;;;24.64;60.74;99919.72;5085558;28;20199;-64
2022/08/18 01:22:18;;;;;;;6.50;4.90;;;;;;;24.65;60.83;99921.38;5069895;28;20459;-64
2022/08/18 01:27:30;;;;;;;8.43;5.27;;;;;;;24.65;60.83;99918.50;5070943;28;20416;-64
2022/08/18 01:29:57;;;;;;;6.03;4.93;;;;;;;24.67;60.62;99918.03;5053527;28;20452;-64
2022/08/18 01:32:23;;;;;;;6.70;5.20;;;;;;;24.67;60.85;99927.53;5081877;28;20427;-64
2022/08/18 01:34:49;;;;;;;6.67;5.37;;;;;;;24.68;60.81;99926.28;5091388;28;20424;-64
2022/08/18 01:37:16;;;;;;;8.37;5.50;;;;;;;24.68;60.82;99926.28;5091038;28;20236;-64
2022/08/18 01:39:42;;;;;;;8.00;5.70;;;;;;;24.70;60.96;99922.97;5090321;28;20425;-64
2022/08/18 01:42:08;;;;;;;5.90;4.80;;;;;;;24.69;60.87;99913.47;5073470;28;20437;-64
2022/08/18 01:44:33;;;;;;;6.67;5.50;;;;;;;24.68;60.96;99923.38;5070352;28;20506;-64
2022/08/18 01:46:59;;;;;;;6.10;5.27;;;;;;;24.67;60.83;99912.25;5086673;28;20182;-64
2022/08/18 01:49:27;;;;;;;7.60;5.20;;;;;;;24.67;61.02;99915.97;5090851;28;20178;-64
2022/08/18 01:51:54;;;;;;;8.23;5.57;;;;;;;24.66;61.37;99922.19;5090069;28;20796;-64
2022/08/18 01:54:20;;;;;;;8.63;5.20;;;;;;;24.67;61.54;99918.03;5089981;28;20456;-64
2022/08/18 01:56:47;;;;;;;6.50;4.80;;;;;;;24.67;60.96;99907.31;5088781;28;20481;-64
2022/08/18 01:59:13;;;;;;;6.50;4.97;;;;;;;24.69;61.11;99909.78;5090426;28;20182;-64
2022/08/18 02:01:39;;;;;;;8.20;5.40;;;;;;;24.70;60.75;99911.41;5090945;28;20509;-64
2022/08/18 02:04:06;;;;;;;6.60;5.17;;;;;;;24.70;61.03;99908.53;5090823;28;20447;-64
2022/08/18 02:06:31;;;;;;;8.43;5.60;;;;;;;24.71;60.77;99919.66;5090921;28;20186;-64
2022/08/18 02:08:56;;;;;;;6.60;4.80;;;;;;;24.70;60.84;99909.34;5089519;28;20423;-64
2022/08/18 02:11:22;;;;;;;5.97;4.83;;;;;;;24.71;60.68;99901.50;5091313;28;20229;-64
2022/08/18 02:13:48;;;;;;;7.50;5.37;;;;;;;24.70;60.84;99903.59;5093593;28;20209;-64
2022/08/18 02:16:13;;;;;;;6.30;5.00;;;;;;;24.73;61.30;99905.59;5093393;28;20622;-64
2022/08/18 02:18:38;;;;;;;6.60;5.23;;;;;;;24.70;61.46;99906.47;5076555;28;20663;-64
2022/08/18 02:21:07;;;;;;;8.40;5.60;;;;;;;24.71;60.91;99901.50;5074535;28;20208;-64
2022/08/18 02:23:33;;;;;;;6.23;5.23;;;;;;;24.71;61.03;99905.22;5074221;28;20211;-64
2022/08/18 02:25:58;;;;;;;7.10;5.40;;;;;;;24.70;60.98;99899.88;5074598;28;20424;-64
2022/08/18 02:28:23;;;;;;;7.93;5.20;;;;;;;24.70;60.88;99892.03;5092882;28;20182;-64
2022/08/18 02:30:49;;;;;;;7.80;5.17;;;;;;;24.70;60.87;99900.69;5094179;28;20198;-64
2022/08/18 02:33:15;;;;;;;9.07;5.10;;;;;;;24.73;60.71;99896.91;5094431;28;20209;-64
2022/08/18 02:35:42;;;;;;;7.13;4.53;;;;;;;24.74;61.04;99903.53;5094486;28;20547;-64
2022/08/18 02:38:08;;;;;;;7.63;5.40;;;;;;;24.74;60.80;99903.53;5094180;28;20631;-64
2022/08/18 02:40:34;;;;;;;8.90;5.70;;;;;;;24.73;61.00;99896.91;5094478;28;20432;-64
2022/08/18 02:43:08;;;;;;;6.13;4.80;;;;;;;24.71;61.37;99887.88;5094084;28;20265;-64
2022/08/18 02:45:36;;;;;;;6.33;4.90;;;;;;;24.71;61.07;99885.00;5094553;28;20172;-64
2022/08/18 02:48:02;;;;;;;5.60;4.70;;;;;;;24.73;60.74;99875.91;5094508;28;20424;-64
2022/08/18 02:50:27;;;;;;;6.27;4.80;;;;;;;24.73;60.82;99882.47;5094385;28;20434;-64
2022/08/18 02:52:53;;;;;;;6.83;5.37;;;;;;;24.72;60.92;99875.06;5093483;28;20582;-64
2022/08/18 02:55:19;;;;;;;6.03;4.97;;;;;;;24.71;61.07;99879.22;5094004;28;20204;-64
2022/08/18 02:57:45;;;;;;;11.10;5.00;;;;;;;24.71;61.01;99870.56;5094086;28;20412;-64
2022/08/18 03:00:13;;;;;;;6.00;5.13;;;;;;;24.71;60.95;99866.84;5094223;28;20205;-64
2022/08/18 03:02:39;;;;;;;14.30;5.90;;;;;;;24.72;60.94;99851.16;5093920;28;20474;-64
2022/08/18 03:05:06;;;;;;;7.73;5.60;;;;;;;24.71;60.94;99850.34;5094038;28;20420;-64
2022/08/18 03:07:31;;;;;;;5.27;4.57;;;;;;;24.70;60.93;99842.94;5093984;28;20185;-64
2022/08/18 03:09:57;;;;;;;7.63;5.30;;;;;;;24.71;60.70;99850.34;5092377;28;20420;-64
2022/08/18 03:12:23;;;;;;;7.03;5.17;;;;;;;24.71;60.82;99861.06;5080727;28;20239;-64
2022/08/18 03:14:49;;;;;;;6.50;5.10;;;;;;;24.71;60.74;99873.44;5073507;28;20183;-64
2022/08/18 03:17:14;;;;;;;7.30;5.40;;;;;;;24.71;60.77;99866.84;5073427;28;20420;-64
2022/08/18 03:19:40;;;;;;;9.70;5.20;;;;;;;24.73;60.56;99875.91;5073365;28;20171;-64
2022/08/18 03:22:07;;;;;;;5.50;4.60;;;;;;;24.71;60.91;99867.69;5073400;28;20172;-64
2022/08/18 03:24:33;;;;;;;6.17;4.67;;;;;;;24.71;60.92;99859.00;5071998;28;20194;-64
2022/08/18 03:26:58;;;;;;;8.43;5.77;;;;;;;24.71;61.02;99859.00;5073966;28;20452;-64
2022/08/18 03:29:25;;;;;;;5.13;4.60;;;;;;;24.72;60.84;99851.97;5074973;28;20630;-64
2022/08/18 03:31:50;;;;;;;6.50;5.30;;;;;;;24.73;60.80;99844.94;5073142;28;20186;-64
2022/08/18 03:34:18;;;;;;;6.97;5.47;;;;;;;24.72;61.01;99845.38;5092715;28;20959;-64
2022/08/18 03:36:44;;;;;;;7.07;5.73;;;;;;;24.73;60.77;99841.25;5093308;28;20179;-64
2022/08/18 03:39:10;;;;;;;5.93;5.27;;;;;;;24.74;60.70;99840.00;5092233;28;20881;-64
2022/08/18 03:41:38;;;;;;;6.80;5.37;;;;;;;24.71;60.95;99838.81;5091774;28;20420;-64
2022/08/18 03:44:03;;;;;;;8.60;5.40;;;;;;;24.72;60.38;99839.59;5093089;28;20453;-64
2022/08/18 03:46:28;;;;;;;5.43;4.73;;;;;;;24.73;60.90;99844.16;5093107;28;20421;-64
2022/08/18 03:48:55;;;;;;;7.83;5.27;;;;;;;24.73;60.94;99841.25;5092844;28;20511;-64
2022/08/18 03:51:24;;;;;;;5.47;4.80;;;;;;;24.74;60.41;99840.00;5093098;28;20174;-64
2022/08/18 03:53:49;;;;;;;5.70;5.07;;;;;;;24.73;60.56;99841.25;5092838;28;20458;-64
2022/08/18 03:56:17;;;;;;;6.87;4.83;;;;;;;24.72;60.74;99843.31;5092981;28;20775;-64
2022/08/18 03:58:46;;;;;;;7.00;5.03;;;;;;;24.71;60.70;99838.81;5092692;28;20589;-65
2022/08/18 04:01:14;;;;;;;6.80;5.23;;;;;;;24.71;60.42;99844.56;5092797;28;20409;-65
2022/08/18 04:03:43;;;;;;;8.93;5.50;;;;;;;24.71;60.26;99850.34;5092204;28;20493;-65
2022/08/18 04:06:21;;;;;;;5.70;4.77;;;;;;;24.74;60.57;99858.13;5091924;28;20428;-65
2022/08/18 04:08:46;;;;;;;7.30;5.30;;;;;;;24.72;60.58;99860.63;5091889;28;20434;-65
2022/08/18 04:11:14;;;;;;;7.10;5.50;;;;;;;24.71;60.64;99850.34;5089312;28;20459;-65
2022/08/18 04:13:40;;;;;;;7.50;5.27;;;;;;;24.73;60.57;99853.59;5073670;28;20199;-65
2022/08/18 04:16:05;;;;;;;6.00;5.00;;;;;;;24.73;60.84;99859.38;5072426;28;20409;-65
2022/08/18 04:18:31;;;;;;;9.53;4.97;;;;;;;24.74;60.49;99857.31;5071950;28;20423;-65
2022/08/18 04:21:04;;;;;;;6.80;5.40;;;;;;;24.74;60.61;99866.00;5086119;28;20175;-65
2022/08/18 04:23:29;;;;;;;9.63;5.17;;;;;;;24.74;60.41;99869.69;5092552;28;20205;-65
2022/08/18 04:25:58;;;;;;;10.23;5.40;;;;;;;24.72;60.93;99875.06;5092420;28;20416;-65
2022/08/18 04:28:24;;;;;;;8.20;5.63;;;;;;;24.74;60.64;99871.75;5092271;28;20258;-65
2022/08/18 04:30:49;;;;;;;9.40;5.20;;;;;;;24.73;60.66;99876.72;5092553;28;20413;-65
2022/08/18 04:33:15;;;;;;;6.67;5.37;;;;;;;24.73;60.65;99879.59;5092324;28;20214;-65
2022/08/18 04:35:40;;;;;;;6.60;4.90;;;;;;;24.73;60.77;99882.47;5085682;28;20594;-62
2022/08/18 04:38:06;;;;;;;5.33;4.80;;;;;;;24.72;60.86;99892.41;5072040;28;20620;-62
2022/08/18 04:40:33;;;;;;;9.10;4.40;;;;;;;24.71;60.95;99896.56;5071895;28;20175;-62
2022/08/18 04:43:00;;;;;;;8.67;5.50;;;;;;;24.71;61.09;99904.38;5072008;28;20231;-63
2022/08/18 04:45:28;;;;;;;6.10;4.80;;;;;;;24.73;60.40;99911.34;5075082;28;20416;-63
2022/08/18 04:47:54;;;;;;;5.73;4.97;;;;;;;24.72;60.60;99906.84;5092142;28;20413;-63
2022/08/18 04:50:20;;;;;;;6.33;4.80;;;;;;;24.71;60.73;99915.94;5091940;28;20439;-63
2022/08/18 04:55:29;;;;;;;6.97;5.30;;;;;;;24.70;61.06;99922.97;5091747;28;20261;-63
2022/08/18 04:57:56;;;;;;;6.50;4.73;;;;;;;24.69;61.51;99922.13;5091687;28;20417;-63
2022/08/18 05:00:22;;;;;;;6.67;5.07;;;;;;;24.70;60.90;99925.84;5090195;28;20197;-64
2022/08/18 05:02:49;;;;;;;5.50;4.73;;;;;;;24.70;60.63;99929.56;5091705;28;20495;-63
2022/08/18 05:05:14;;;;;;;6.03;4.90;;;;;;;24.70;60.79;99920.91;5091645;28;20319;-63
2022/08/18 05:07:46;;;;;;;6.80;5.07;;;;;;;24.70;60.87;99941.13;5107326;28;20986;-63
2022/08/18 05:10:12;;;;;;;5.90;5.30;;;;;;;24.70;60.87;99935.34;5091483;28;20532;-63
2022/08/18 05:12:40;;;;;;;9.73;5.33;;;;;;;24.71;61.06;99951.41;5091222;28;20472;-63
2022/08/18 05:15:06;;;;;;;10.30;5.90;;;;;;;24.71;60.91;99939.03;5091363;28;20416;-63
2022/08/18 05:17:32;;;;;;;7.50;5.17;;;;;;;24.71;60.80;99936.13;5091323;28;20750;-63
2022/08/18 05:19:58;;;;;;;5.93;4.90;;;;;;;24.70;60.97;99952.66;5090558;28;20423;-63
2022/08/18 05:22:24;;;;;;;7.17;4.40;;;;;;;24.70;61.05;99946.06;5089446;28;20185;-63
2022/08/18 05:24:49;;;;;;;6.70;4.50;;;;;;;24.69;61.02;99936.56;5090514;28;20428;-63
2022/08/18 05:27:15;;;;;;;6.80;5.23;;;;;;;24.71;60.94;99947.69;5090657;28;20200;-63
2022/08/18 05:29:40;;;;;;;7.97;5.30;;;;;;;24.71;61.02;99944.81;5075237;28;20576;-63
2022/08/18 05:32:06;;;;;;;7.83;5.60;;;;;;;24.70;61.23;99938.22;5070339;28;20190;-63
2022/08/18 05:34:32;;;;;;;7.57;5.07;;;;;;;24.71;60.64;99936.13;5069505;28;20210;-63
2022/08/18 05:37:31;;;;;;;7.97;5.63;;;;;;;24.70;60.99;99935.34;5069748;28;20190;-63
2022/08/18 05:39:58;;;;;;;7.60;5.50;;;;;;;24.69;61.07;99922.13;5065140;28;20468;-63
2022/08/18 05:42:25;;;;;;;6.20;5.30;;;;;;;24.65;61.08;99932.09;5085159;28;20421;-63
2022/08/18 05:44:51;;;;;;;6.17;4.80;;;;;;;24.64;61.05;99931.25;5052522;28;20760;-63
2022/08/18 05:47:28;;;;;;;8.93;6.20;;;;;;;24.64;60.94;99916.84;5088594;28;20503;-63
2022/08/18 05:49:55;;;;;;;10.17;6.13;;;;;;;24.65;61.30;99926.31;5090750;28;20162;-63
2022/08/18 05:52:37;;;;;;;6.07;5.33;;;;;;;24.64;61.11;99919.72;5072932;28;20431;-63
2022/08/18 05:57:56;;;;;;;6.50;4.90;;;;;;;24.66;61.38;99923.00;5075688;28;20443;-63
2022/08/18 06:00:22;;;;;;;10.90;5.57;;;;;;;24.65;61.40;99914.78;5089736;28;20481;-63
2022/08/18 06:03:07;;;;;;;7.20;5.50;;;;;;;24.65;61.29;99920.56;5081323;28;20417;-63
2022/08/18 06:05:40;;;;;;;8.50;5.50;;;;;;;24.65;61.04;99912.72;5053073;28;20501;-63
2022/08/18 06:08:10;;;;;;;7.80;5.90;;;;;;;24.67;61.27;99923.81;5053158;28;20838;-63
2022/08/18 06:10:37;;;;;;;8.93;5.57;;;;;;;24.68;61.56;99919.69;5069999;28;20459;-63
2022/08/18 06:13:02;;;;;;;6.27;5.43;;;;;;;24.67;61.18;99915.16;5070345;28;20526;-63
2022/08/18 06:15:32;;;;;;;7.20;5.40;;;;;;;24.67;61.61;99920.94;5069221;28;20976;-63
2022/08/18 06:18:08;;;;;;;7.20;5.13;;;;;;;24.68;61.61;99914.72;5070756;28;20159;-63
2022/08/18 06:21:15;;;;;;;8.30;6.30;;;;;;;24.67;61.56;99918.03;5069390;28;20458;-63
2022/08/18 06:23:52;;;;;;;7.57;5.50;;;;;;;24.64;61.65;99913.94;5026709;28;20518;-63
2022/08/18 06:26:44;;;;;;;6.13;5.53;;;;;;;24.63;61.64;99906.53;5064756;28;20417;-63
2022/08/18 06:29:20;;;;;;;8.93;5.10;;;;;;;24.62;61.56;99921.41;5043137;28;20421;-63
2022/08/18 06:32:36;;;;;;;9.20;6.00;;;;;;;24.62;61.97;99919.34;5070654;28;20971;-63
2022/08/18 06:35:18;;;;;;;7.97;5.00;;;;;;;24.65;62.08;99920.56;5025678;28;20430;-63
2022/08/18 06:40:34;;;;;;;7.50;5.47;;;;;;;24.64;61.88;99925.50;5089673;28;20412;-63
2022/08/18 06:42:59;;;;;;;6.47;5.40;;;;;;;24.64;62.19;99918.91;5089339;28;20411;-63
2022/08/18 06:45:31;;;;;;;7.60;5.13;;;;;;;24.63;61.80;99929.63;5086536;28;21328;-63
2022/08/18 06:48:22;;;;;;;7.23;5.13;;;;;;;24.17;65.02;99928.50;5072439;28;20794;-65
2022/08/18 06:50:56;;;;;;;6.83;4.87;;;;;;;24.25;65.88;99935.84;5089706;28;20412;-63
2022/08/18 06:53:22;;;;;;;9.03;6.20;;;;;;;24.33;66.96;99938.22;5072763;28;20451;-63
2022/08/18 06:55:48;;;;;;;8.80;6.73;;;;;;;25.04;67.10;99941.88;5088358;28;20511;-63
2022/08/18 06:58:17;;;;;;;15.17;8.33;;;;;;;24.61;67.61;99942.88;5090086;28;20178;-63
2022/08/18 07:00:49;;;;;;;11.83;7.23;;;;;;;24.47;68.34;99955.38;5080300;28;20413;-63
2022/08/18 07:03:41;;;;;;;9.93;7.60;;;;;;;23.85;70.40;99957.63;5091940;28;20459;-62
2022/08/18 07:06:11;;;;;;;8.60;6.80;;;;;;;23.73;70.16;99955.25;5085737;28;20483;-63
2022/08/18 07:08:40;;;;;;;10.30;6.23;;;;;;;23.75;70.09;99957.72;5092393;28;20795;-63
2022/08/18 07:11:16;;;;;;;11.47;5.43;;;;;;;24.06;68.31;99959.53;5090337;28;20570;-64
2022/08/18 07:13:43;;;;;;;10.20;6.87;;;;;;;23.80;69.51;99960.16;5091565;28;20446;-63
2022/08/18 07:16:14;;;;;;;7.67;6.13;;;;;;;24.08;68.63;99959.94;5092572;28;20573;-63
2022/08/18 07:18:40;;;;;;;8.60;5.83;;;;;;;23.89;68.20;99963.41;5092191;28;20404;-63
2022/08/18 07:21:05;;;;;;;8.10;6.67;;;;;;;23.76;68.87;99965.94;5092415;28;20424;-62
2022/08/18 07:23:38;;;;;;;12.17;6.13;;;;;;;23.64;69.11;99968.53;5087204;28;20163;-62
2022/08/18 07:26:14;;;;;;;12.00;5.93;;;;;;;23.71;69.06;99968.44;5073301;28;20186;-63
2022/08/18 07:28:47;;;;;;;9.93;5.90;;;;;;;23.54;70.38;99969.44;5073278;28;20446;-63
2022/08/18 07:31:23;;;;;;;8.57;5.40;;;;;;;23.78;68.43;99969.22;5079997;28;20428;-63
2022/08/18 07:34:14;;;;;;;11.70;5.80;;;;;;;24.08;68.85;99971.47;5076316;28;20460;-63
2022/08/18 07:37:11;;;;;;;9.13;7.13;;;;;;;24.25;67.78;99973.34;5085725;28;20460;-63
2022/08/18 07:39:50;;;;;;;7.37;5.47;;;;;;;24.20;67.73;99983.28;5062553;28;20441;-63
2022/08/18 07:42:23;;;;;;;7.27;5.47;;;;;;;24.27;67.88;99980.31;5071797;28;20410;-63
2022/08/18 07:44:58;;;;;;;11.13;6.03;;;;;;;23.73;69.77;99989.84;5055625;28;20436;-64
2022/08/18 07:47:52;;;;;;;6.50;5.60;;;;;;;23.64;70.46;99989.50;5091127;28;20456;-63
2022/08/18 07:50:18;;;;;;;9.93;5.00;;;;;;;24.00;68.20;99985.13;5074526;28;20421;-63
2022/08/18 07:52:49;;;;;;;11.10;5.70;;;;;;;23.91;68.61;99983.97;5088323;28;20434;-63
2022/08/18 07:55:31;;;;;;;7.90;5.40;;;;;;;23.74;69.20;99974.19;5091437;28;20190;-63
2022/08/18 07:58:23;;;;;;;13.33;6.33;;;;;;;24.08;67.43;99968.59;5062070;28;20478;-63
2022/08/18 08:00:57;;;;;;;8.40;5.83;;;;;;;24.20;66.86;99951.56;5089975;28;20919;-63
2022/08/18 08:03:30;;;;;;;8.67;6.23;;;;;;;24.01;67.21;99965.75;5090640;28;20459;-63
2022/08/18 08:06:00;;;;;;;8.80;5.23;;;;;;;23.89;67.40;99981.50;5092203;28;20436;-63
2022/08/18 08:08:36;;;;;;;11.97;6.10;;;;;;;23.93;67.49;99976.53;5074008;28;20445;-63
2022/08/18 08:11:11;;;;;;;10.07;5.30;;;;;;;24.14;68.23;99982.09;5070012;28;20476;-63
2022/08/18 08:14:00;;;;;;;7.67;5.70;;;;;;;23.94;67.77;99983.94;5092401;28;20993;-63
2022/08/18 08:16:37;;;;;;;8.97;5.83;;;;;;;23.82;68.70;99992.25;5090488;28;20459;-63
2022/08/18 08:19:07;;;;;;;12.03;5.77;;;;;;;23.70;69.13;99996.47;5092188;28;20584;-63
2022/08/18 08:21:36;;;;;;;10.83;6.10;;;;;;;23.97;67.78;99990.91;5092663;28;20416;-63
2022/08/18 08:24:20;;;;;;;11.23;5.30;;;;;;;23.46;69.75;99991.72;5091042;28;20511;-63
2022/08/18 08:27:01;;;;;;;6.90;5.50;;;;;;;23.77;68.94;99998.47;5090038;28;20431;-63
2022/08/18 08:29:41;;;;;;;8.00;5.67;;;;;;;23.45;69.58;99997.88;5092266;28;20460;-63
2022/08/18 08:32:11;;;;;;;9.03;5.87;;;;;;;23.86;68.29;99982.34;5090835;28;20425;-63
2022/08/18 08:35:03;;;;;;;6.33;4.87;;;;;;;24.09;67.43;99973.09;5090396;28;21251;-63
2022/08/18 08:37:41;;;;;;;9.40;6.27;;;;;;;24.01;67.75;99957.09;5081764;28;20437;-63
2022/08/18 08:40:19;;;;;;;9.30;5.67;;;;;;;24.15;67.26;99959.84;5073474;28;20437;-63
2022/08/18 08:42:55;;;;;;;8.97;5.40;;;;;;;24.24;66.24;99965.94;5070222;28;20555;-63
2022/08/18 08:45:45;;;;;;;9.50;5.70;;;;;;;24.29;66.18;99968.38;5089588;28;20786;-63
2022/08/18 08:48:16;;;;;;;9.17;5.70;;;;;;;24.27;65.99;99970.84;5051222;28;20416;-63
2022/08/18 08:50:49;;;;;;;8.30;6.00;;;;;;;24.27;66.05;99970.84;5092028;28;21225;-63
2022/08/18 08:53:22;;;;;;;9.43;5.57;;;;;;;24.27;66.17;99974.56;5091932;28;21033;-63
2022/08/18 08:55:59;;;;;;;8.53;5.60;;;;;;;24.28;66.02;99970.41;5074471;28;20419;-63
2022/08/18 08:58:33;;;;;;;14.80;6.53;;;;;;;24.29;65.89;99960.50;5090494;28;20419;-63
2022/08/18 09:00:58;;;;;;;11.60;6.27;;;;;;;24.27;66.51;99939.09;5090467;28;20409;-63
2022/08/18 09:03:33;;;;;;;7.77;5.93;;;;;;;24.25;66.38;99935.84;5090745;28;20420;-63
2022/08/18 09:05:58;;;;;;;8.10;5.73;;;;;;;24.25;66.32;99939.56;5089874;28;20235;-63
2022/08/18 09:08:54;;;;;;;6.83;5.50;;;;;;;24.16;66.83;99936.34;5091145;28;20778;-63
2022/08/18 09:11:25;;;;;;;7.80;5.50;;;;;;;24.11;67.25;99922.38;5091036;28;20226;-63
2022/08/18 09:14:02;;;;;;;7.40;5.90;;;;;;;24.20;67.18;99924.75;5091069;28;20502;-63
2022/08/18 09:16:44;;;;;;;9.17;5.67;;;;;;;24.09;67.48;99913.31;5091527;28;20497;-63
2022/08/18 09:19:24;;;;;;;6.77;5.13;;;;;;;24.21;67.01;99914.84;5073875;28;20445;-63
2022/08/18 09:22:17;;;;;;;16.37;6.30;;;;;;;24.22;66.83;99928.84;5090416;28;20941;-63
2022/08/18 09:24:51;;;;;;;10.83;5.83;;;;;;;24.27;66.50;99934.16;5075271;28;20401;-63
2022/08/18 09:27:29;;;;;;;6.57;5.70;;;;;;;24.30;66.40;99933.31;5069935;28;20780;-63
2022/08/18 09:29:56;;;;;;;6.63;5.40;;;;;;;24.33;66.40;99943.19;5069906;28;20424;-63
2022/08/18 09:32:21;;;;;;;7.27;6.10;;;;;;;24.27;66.73;99941.97;5070924;28;20424;-63
2022/08/18 09:35:22;;;;;;;6.03;5.43;;;;;;;24.32;66.13;99936.56;5071057;28;20448;-63
2022/08/18 09:41:30;;;;;;;8.43;5.23;;;;;;;24.36;66.32;99930.75;4989193;28;20201;-64
2022/08/18 09:43:29;;;;;;;7.07;5.80;;;;;;;24.36;66.32;99960.44;5069814;28;20411;-63
2022/08/18 09:45:59;;;;;;;6.93;5.47;;;;;;;24.35;65.91;99953.03;5076014;28;20416;-63
2022/08/18 09:48:34;;;;;;;7.73;5.70;;;;;;;24.40;65.86;99952.59;5088788;28;20937;-63
2022/08/18 09:51:10;;;;;;;5.70;4.87;;;;;;;24.40;66.32;99954.63;5088876;28;20407;-64
2022/08/18 09:53:53;;;;;;;6.73;4.60;;;;;;;24.42;65.93;99960.78;5090158;28;20759;-64
2022/08/18 09:56:57;;;;;;;6.80;5.73;;;;;;;24.23;67.06;99962.22;5089251;28;20506;-64
2022/08/18 09:59:32;;;;;;;7.07;5.80;;;;;;;24.36;66.35;99974.03;5046884;28;20405;-64
2022/08/18 10:02:09;;;;;;;9.70;6.70;;;;;;;24.30;67.01;99973.72;5078218;28;20975;-64
2022/08/18 10:04:49;;;;;;;8.47;5.87;;;;;;;24.31;66.89;99974.50;5089825;28;20489;-64
2022/08/18 10:07:18;;;;;;;5.90;5.30;;;;;;;24.37;66.91;99972.78;5089147;28;20404;-64
2022/08/18 10:10:09;;;;;;;7.87;5.80;;;;;;;24.36;66.51;99966.22;5089967;28;20818;-64
2022/08/18 10:12:40;;;;;;;6.90;5.20;;;;;;;24.40;66.49;99955.47;5088057;28;20521;-64
2022/08/18 10:15:40;;;;;;;7.87;5.53;;;;;;;24.41;66.60;99941.84;5090124;28;20432;-64
2022/08/18 10:18:30;;;;;;;6.77;5.60;;;;;;;24.42;66.56;99926.97;5057324;28;20586;-64
2022/08/18 10:21:17;;;;;;;7.60;5.73;;;;;;;24.33;66.54;99917.22;5090202;28;20400;-64
2022/08/18 10:23:44;;;;;;;7.20;5.60;;;;;;;24.39;66.88;99907.63;5090939;28;20433;-63
2022/08/18 10:26:28;;;;;;;10.40;5.20;;;;;;;24.40;66.21;99894.84;5090628;28;20416;-63
2022/08/18 10:29:02;;;;;;;6.70;5.57;;;;;;;24.42;66.49;99898.13;5090286;28;20428;-63
2022/08/18 10:31:29;;;;;;;9.20;5.60;;;;;;;24.44;66.46;99898.50;5089512;28;20819;-63
2022/08/18 10:34:10;;;;;;;7.57;5.63;;;;;;;24.44;66.77;99892.72;5093592;28;20954;-63
2022/08/18 10:36:49;;;;;;;6.80;5.40;;;;;;;24.45;66.50;99882.84;5094342;28;20412;-63
2022/08/18 10:39:17;;;;;;;7.27;5.87;;;;;;;24.33;66.98;99897.00;5094378;28;20416;-63
2022/08/18 10:42:04;;;;;;;8.23;6.10;;;;;;;24.38;66.56;99890.78;5093053;28;20919;-63
2022/08/18 10:44:32;;;;;;;9.53;5.90;;;;;;;24.34;66.54;99899.44;5092701;28;20404;-63
2022/08/18 10:46:58;;;;;;;6.20;5.43;;;;;;;24.39;66.46;99901.84;5075844;28;20422;-63
2022/08/18 10:49:25;;;;;;;5.80;5.20;;;;;;;24.43;66.36;99890.28;5072595;28;20774;-64
2022/08/18 10:52:00;;;;;;;6.70;5.57;;;;;;;24.40;66.61;99891.97;5073989;28;20904;-64
2022/08/18 10:55:08;;;;;;;7.80;6.07;;;;;;;24.43;66.39;99882.44;5073679;28;20535;-64
2022/08/18 10:58:00;;;;;;;7.30;5.50;;;;;;;24.43;66.24;99865.13;5062815;28;20778;-64
2022/08/18 11:00:44;;;;;;;7.57;5.10;;;;;;;24.44;65.91;99877.50;5072756;28;20964;-64
2022/08/18 11:03:39;;;;;;;6.93;5.90;;;;;;;24.36;67.21;99882.53;5072536;28;20437;-63
2022/08/18 11:06:08;;;;;;;11.47;6.20;;;;;;;24.37;66.69;99880.44;5073760;28;20911;-63
2022/08/18 11:08:36;;;;;;;8.63;6.70;;;;;;;24.41;66.74;99893.59;5072350;28;20839;-63
2022/08/18 11:11:08;;;;;;;9.13;7.53;;;;;;;24.44;66.60;99886.94;5055387;28;20480;-63
2022/08/18 11:14:02;;;;;;;10.73;7.00;;;;;;;24.45;66.05;99890.66;5072093;28;20496;-63
2022/08/18 11:16:33;;;;;;;10.20;6.77;;;;;;;24.44;66.61;99892.72;5073570;28;20409;-63
2022/08/18 11:19:09;;;;;;;10.23;6.87;;;;;;;24.43;66.71;99891.09;5073778;28;20432;-63
2022/08/18 11:21:41;;;;;;;8.60;7.10;;;;;;;24.43;66.21;99890.28;5056384;28;20911;-63
2022/08/18 11:24:14;;;;;;;9.27;7.00;;;;;;;24.45;66.79;99876.25;5075651;28;20462;-63
2022/08/18 11:26:43;;;;;;;9.07;7.30;;;;;;;24.46;66.82;99883.63;5094076;28;20489;-63
2022/08/18 11:29:36;;;;;;;13.40;8.83;;;;;;;24.47;66.48;99876.63;5094331;28;20412;-64
2022/08/18 11:32:12;;;;;;;9.30;7.40;;;;;;;24.47;66.70;99868.78;5089234;28;20452;-64
2022/08/18 11:34:51;;;;;;;10.00;7.73;;;;;;;24.45;66.59;99865.53;5092669;28;20478;-64
2022/08/18 11:37:35;;;;;;;11.87;8.93;;;;;;;24.37;66.89;99863.97;5093985;28;20499;-64
2022/08/18 11:40:02;;;;;;;8.97;7.90;;;;;;;24.44;66.51;99857.28;5093833;28;20415;-64
2022/08/18 11:42:38;;;;;;;10.47;7.27;;;;;;;24.47;66.17;99856.41;5075880;28;20432;-63
2022/08/18 11:45:12;;;;;;;8.97;7.60;;;;;;;24.48;66.02;99861.75;5092524;28;20412;-63
2022/08/18 11:47:47;;;;;;;10.37;8.60;;;;;;;24.49;66.72;99863.38;5093915;28;20882;-63
2022/08/18 11:50:12;;;;;;;13.30;7.77;;;;;;;24.48;66.63;99853.09;5075197;28;20421;-64
2022/08/18 11:52:51;;;;;;;10.80;8.83;;;;;;;24.50;66.64;99849.78;5092609;28;20431;-64
2022/08/18 11:55:20;;;;;;;12.87;8.10;;;;;;;24.37;67.06;99835.09;5093524;28;20186;-64
2022/08/18 11:57:55;;;;;;;10.87;9.40;;;;;;;24.44;66.73;99834.22;5093462;28;20443;-64
2022/08/18 12:00:36;;;;;;;15.17;12.40;;;;;;;24.37;67.13;99832.22;5093434;28;20434;-64
2022/08/18 12:03:38;;;;;;;10.23;9.17;;;;;;;24.33;68.18;99825.69;5093475;28;20412;-64
2022/08/18 12:06:39;;;;;;;9.87;8.83;;;;;;;24.44;67.84;99829.22;5092801;28;20442;-64
2022/08/18 12:09:18;;;;;;;15.47;10.93;;;;;;;24.47;69.36;99831.25;5075724;28;20915;-64
2022/08/18 12:12:04;;;;;;;12.63;11.33;;;;;;;24.46;67.89;99825.91;5093193;28;20468;-64
2022/08/18 12:14:32;;;;;;;16.90;12.83;;;;;;;24.36;68.92;99821.09;5091702;28;20961;-64